KBAN

Bridgeport (MCMWT)

Bridgeport, California, USA
METAR KBAN 210452Z AUTO VRB03KT 10SM CLR 19/M04 A3018 RMK AO2 SLP100 T01941044 $
Observed Flight Rules
Aug-21 @ 04:52 UTC (9 hours ago) Visual Flight Rules
Wind Visibility Clouds
Variable at 3 knots 10 miles
  • Clear skies
Temperatures Readings
Current 19°C / 66°F
Dewpoint -4°C / 25°F
Humidity 21%
Altimeter 30.18" Hg
Pressure 1010 hPa
Elevation 2057
METAR KBAN 210452Z AUTO VRB03KT 10SM CLR 19/M04 A3018 RMK AO2 SLP100 T01941044 $
Observed Flight Rules
Aug-21 @ 04:52 UTC
(9 hours ago)
VFR
Wind Visibility
Variable at 3 knots 10 miles
Clouds
  • Clear skies
Temperature Dewpoint
19°C / 66°F -4°C / 25°F
Humidity Altimeter Pressure
21% 30.18" Hg 1010 hPa